Time;durP1;ratioP1;P1;durP2;ratioP2;P2;SDS_P1;SDS_P2;PMS_P1;PMS_P2;Temp;Humidity;BMP_temperature;BMP_pressure;BME280_temperature;BME280_humidity;BME280_pressure;Samples;Min_cycle;Max_cycle;Signal;HPM_P1;HPM_P2
2023/11/14 00:01:50;;;;;;;8.90;2.83;;;;;;;13.73;65.65;96457.88;4951485;28;20293;-79
2023/11/14 00:04:15;;;;;;;12.23;2.90;;;;;;;13.81;65.49;96459.81;4936038;28;20278;-79
2023/11/14 00:06:41;;;;;;;9.68;1.95;;;;;;;13.88;64.68;96462.09;4937397;28;20164;-79
2023/11/14 00:09:06;;;;;;;9.20;2.15;;;;;;;13.80;64.76;96466.91;4945681;28;20653;-80
2023/11/14 00:11:34;;;;;;;11.63;3.40;;;;;;;13.72;64.97;96467.53;4972672;28;20219;-78
2023/11/14 00:14:01;;;;;;;7.45;2.33;;;;;;;13.78;64.69;96470.88;4934270;28;20642;-79
2023/11/14 00:16:27;;;;;;;16.05;3.33;;;;;;;13.46;66.00;96464.47;4938482;28;20306;-79
2023/11/14 00:18:52;;;;;;;16.33;3.78;;;;;;;13.59;64.88;96465.59;4934792;28;20568;-78
2023/11/14 00:21:18;;;;;;;11.32;1.98;;;;;;;13.49;64.39;96466.53;4943378;28;20699;-79
2023/11/14 00:23:44;;;;;;;15.27;3.08;;;;;;;13.45;65.04;96457.66;4951836;28;20282;-79
2023/11/14 00:26:09;;;;;;;7.53;2.03;;;;;;;13.63;64.16;96456.16;4961234;28;20643;-79
2023/11/14 00:28:35;;;;;;;12.50;2.33;;;;;;;13.47;64.83;96461.56;4962287;28;20191;-79
2023/11/14 00:31:00;;;;;;;11.57;2.15;;;;;;;13.35;65.15;96444.72;4954700;28;20286;-79
2023/11/14 00:33:25;;;;;;;7.68;1.92;;;;;;;13.58;63.75;96456.22;4947935;28;20322;-79
2023/11/14 00:35:51;;;;;;;9.70;2.30;;;;;;;13.47;65.24;96452.94;4931058;28;20609;-79
2023/11/14 00:38:16;;;;;;;11.65;2.20;;;;;;;13.35;64.55;96437.66;4936297;28;20636;-79
2023/11/14 00:40:43;;;;;;;11.60;2.63;;;;;;;13.08;64.59;96436.34;4932653;28;20259;-79
2023/11/14 00:43:08;;;;;;;8.90;2.35;;;;;;;13.24;63.95;96450.03;4959665;28;20203;-79
2023/11/14 00:45:33;;;;;;;10.82;2.40;;;;;;;13.33;64.02;96460.66;4955502;28;20200;-78
2023/11/14 00:47:59;;;;;;;11.95;2.80;;;;;;;13.20;64.89;96451.66;4971403;28;20181;-79
2023/11/14 00:50:27;;;;;;;12.50;2.80;;;;;;;13.23;64.34;96455.53;4963414;28;20187;-78
2023/11/14 00:52:53;;;;;;;10.50;2.30;;;;;;;13.01;64.47;96453.44;4964870;28;20404;-79
2023/11/14 00:55:18;;;;;;;8.77;2.45;;;;;;;12.96;65.63;96456.09;4965544;28;20348;-78
2023/11/14 00:57:43;;;;;;;11.02;2.60;;;;;;;12.79;65.40;96467.75;4954719;28;20196;-79
2023/11/14 01:00:11;;;;;;;6.07;1.85;;;;;;;12.86;65.76;96457.75;4950995;28;20243;-80
2023/11/14 01:02:39;;;;;;;9.10;1.88;;;;;;;12.66;66.37;96452.72;4965826;28;20463;-79
2023/11/14 01:05:05;;;;;;;8.55;2.15;;;;;;;12.61;66.92;96457.97;4950988;28;20183;-79
2023/11/14 01:07:31;;;;;;;12.15;2.92;;;;;;;12.50;67.50;96467.75;4942394;28;20169;-79
2023/11/14 01:09:56;;;;;;;10.20;2.50;;;;;;;12.68;66.65;96479.31;4973005;28;20348;-79
2023/11/14 01:12:22;;;;;;;8.35;2.35;;;;;;;12.55;66.59;96478.91;4958231;28;20910;-79
2023/11/14 01:14:47;;;;;;;11.10;2.47;;;;;;;12.64;65.80;96483.56;4946705;28;20433;-79
2023/11/14 01:17:13;;;;;;;12.07;2.67;;;;;;;12.63;66.14;96485.38;4950126;28;20105;-79
2023/11/14 01:19:39;;;;;;;10.80;2.20;;;;;;;12.56;67.53;96479.72;4966435;28;20192;-79
2023/11/14 01:22:05;;;;;;;7.95;1.55;;;;;;;12.51;66.47;96477.91;4956828;28;20286;-79
2023/11/14 01:24:30;;;;;;;10.95;2.63;;;;;;;12.52;66.45;96474.22;4964717;28;20202;-79
2023/11/14 01:26:55;;;;;;;7.93;1.98;;;;;;;12.51;66.98;96466.69;4948156;28;20195;-78
2023/11/14 01:29:21;;;;;;;7.28;1.70;;;;;;;12.46;66.31;96472.72;4945311;28;20251;-79
2023/11/14 01:31:46;;;;;;;10.15;2.50;;;;;;;12.33;67.14;96474.13;4924549;28;20690;-79
2023/11/14 01:34:12;;;;;;;8.63;1.92;;;;;;;12.36;66.95;96476.19;4980096;28;20190;-79
2023/11/14 01:36:38;;;;;;;15.25;2.58;;;;;;;12.33;67.63;96479.34;4929349;28;20183;-80
2023/11/14 01:39:04;;;;;;;11.60;3.35;;;;;;;12.18;67.83;96480.25;4970896;28;20211;-79
2023/11/14 01:41:30;;;;;;;10.48;2.55;;;;;;;12.21;67.08;96486.72;4940395;28;20220;-79
2023/11/14 01:43:55;;;;;;;8.05;2.42;;;;;;;12.16;67.39;96473.72;4961838;28;20683;-79
2023/11/14 01:46:21;;;;;;;12.75;2.50;;;;;;;12.10;68.40;96480.81;4946995;28;20563;-78
2023/11/14 01:48:50;;;;;;;7.80;2.10;;;;;;;12.24;67.66;96483.59;4964831;28;20635;-79
2023/11/14 01:51:16;;;;;;;12.68;2.72;;;;;;;12.22;67.99;96474.47;4957946;28;20694;-79
2023/11/14 01:53:42;;;;;;;9.23;2.47;;;;;;;12.24;68.03;96469.78;4956893;28;20193;-79
2023/11/14 01:56:08;;;;;;;8.82;2.25;;;;;;;12.31;67.18;96494.50;4927186;28;20580;-78
2023/11/14 01:58:34;;;;;;;12.70;2.88;;;;;;;12.36;67.57;96493.69;4945502;28;20485;-79
2023/11/14 02:01:00;;;;;;;9.57;1.80;;;;;;;12.23;67.28;96489.06;4940733;28;20624;-79
2023/11/14 02:03:27;;;;;;;8.50;2.00;;;;;;;12.23;67.31;96487.25;4932044;28;20194;-80
2023/11/14 02:05:53;;;;;;;9.00;2.30;;;;;;;12.12;66.83;96509.25;4942977;28;20265;-79
2023/11/14 02:08:18;;;;;;;8.57;2.20;;;;;;;11.90;67.73;96499.94;4961071;28;20160;-78
2023/11/14 02:10:44;;;;;;;11.32;2.40;;;;;;;12.17;67.28;96512.59;4938992;28;20752;-79
2023/11/14 02:13:09;;;;;;;12.85;3.45;;;;;;;12.15;67.12;96496.44;4964872;28;20321;-80
2023/11/14 02:15:35;;;;;;;9.68;2.95;;;;;;;12.30;67.70;96502.59;4941462;28;20286;-79
2023/11/14 02:18:00;;;;;;;10.93;2.55;;;;;;;12.35;66.37;96500.75;4938271;28;20406;-79
2023/11/14 02:20:26;;;;;;;10.25;2.05;;;;;;;12.34;66.39;96493.19;4933452;28;20289;-78
2023/11/14 02:22:52;;;;;;;13.38;2.38;;;;;;;12.39;65.62;96498.38;4942305;28;20729;-79
2023/11/14 02:25:18;;;;;;;8.60;2.10;;;;;;;12.32;67.34;96501.28;4957473;28;20294;-79
2023/11/14 02:27:43;;;;;;;5.85;2.08;;;;;;;12.24;67.16;96499.25;4944838;28;20264;-80
2023/11/14 02:30:09;;;;;;;12.68;2.00;;;;;;;12.11;67.28;96495.41;4936801;28;20213;-79
2023/11/14 02:32:34;;;;;;;12.85;2.15;;;;;;;12.16;67.66;96492.75;4946032;28;21211;-79
2023/11/14 02:35:00;;;;;;;11.40;1.92;;;;;;;12.16;67.04;96482.31;4949010;28;20109;-80
2023/11/14 02:37:28;;;;;;;10.98;3.22;;;;;;;12.28;67.32;96489.03;4936133;28;20368;-79
2023/11/14 02:39:54;;;;;;;7.95;2.03;;;;;;;12.42;66.53;96499.66;4933396;28;20218;-80
2023/11/14 02:42:19;;;;;;;11.10;2.10;;;;;;;12.55;66.40;96505.03;4957563;28;20224;-79
2023/11/14 02:44:45;;;;;;;9.85;3.15;;;;;;;12.52;66.61;96504.78;4942971;28;20544;-79
2023/11/14 02:47:11;;;;;;;10.20;2.30;;;;;;;12.47;66.94;96515.28;4937780;28;20287;-79
2023/11/14 02:49:45;;;;;;;9.75;2.28;;;;;;;12.55;66.34;96520.69;4963993;28;20275;-80
2023/11/14 02:52:11;;;;;;;9.35;2.15;;;;;;;12.52;66.49;96529.06;4953887;28;20329;-79
2023/11/14 02:54:36;;;;;;;6.22;1.88;;;;;;;12.78;65.49;96549.00;4932204;28;20597;-79
2023/11/14 02:57:02;;;;;;;5.97;2.05;;;;;;;12.84;65.60;96547.91;4948123;28;20237;-79
2023/11/14 02:59:27;;;;;;;15.18;2.88;;;;;;;12.72;65.51;96537.81;4951486;28;20199;-79
2023/11/14 03:01:52;;;;;;;7.18;2.22;;;;;;;12.77;65.47;96550.06;4949640;28;20241;-79
2023/11/14 03:04:18;;;;;;;8.23;2.45;;;;;;;12.87;65.79;96550.75;4949950;28;20659;-78
2023/11/14 03:06:43;;;;;;;7.82;2.20;;;;;;;12.87;66.10;96563.81;4946947;28;20663;-78
2023/11/14 03:09:08;;;;;;;10.77;2.63;;;;;;;12.92;65.57;96565.63;4958803;28;20200;-79
2023/11/14 03:11:34;;;;;;;10.90;2.22;;;;;;;12.94;65.12;96563.50;4949671;28;20285;-79
2023/11/14 03:14:00;;;;;;;15.13;2.65;;;;;;;12.98;65.87;96579.41;4949239;28;20259;-80
2023/11/14 03:16:26;;;;;;;10.82;1.88;;;;;;;12.97;65.92;96572.63;4953447;28;20317;-79
2023/11/14 03:18:51;;;;;;;7.43;3.25;;;;;;;12.96;65.83;96589.38;4945290;28;20203;-79
2023/11/14 03:21:17;;;;;;;7.55;2.10;;;;;;;12.98;66.01;96590.63;4947736;28;20202;-79
2023/11/14 03:23:42;;;;;;;10.40;2.88;;;;;;;13.01;66.42;96590.09;4940989;28;20525;-79
2023/11/14 03:26:08;;;;;;;9.05;2.33;;;;;;;13.03;66.34;96582.75;4961075;28;20253;-79
2023/11/14 03:28:34;;;;;;;8.80;2.55;;;;;;;13.01;65.84;96578.88;4958930;28;20318;-79
2023/11/14 03:30:59;;;;;;;10.48;2.47;;;;;;;13.06;65.76;96586.66;4941939;28;20811;-79
2023/11/14 03:33:26;;;;;;;10.95;2.33;;;;;;;13.04;65.74;96586.16;4945244;28;20807;-79
2023/11/14 03:35:51;;;;;;;11.80;2.97;;;;;;;13.03;66.55;96593.22;4947790;28;20313;-79
2023/11/14 03:38:17;;;;;;;11.75;1.75;;;;;;;13.07;66.56;96603.91;4963403;28;20682;-79
2023/11/14 03:40:42;;;;;;;8.20;2.33;;;;;;;13.08;67.00;96595.00;4946450;28;20710;-79
2023/11/14 03:43:08;;;;;;;7.63;2.53;;;;;;;13.03;66.57;96603.66;4963180;28;20186;-80
2023/11/14 03:45:34;;;;;;;9.23;2.30;;;;;;;13.16;67.42;96604.88;4963921;28;20540;-79
2023/11/14 03:47:59;;;;;;;11.18;3.10;;;;;;;13.01;66.55;96599.78;4960089;28;20278;-79
2023/11/14 03:50:25;;;;;;;11.65;2.20;;;;;;;13.13;66.53;96597.59;4944379;28;20352;-79
2023/11/14 03:52:50;;;;;;;8.65;1.55;;;;;;;13.28;66.75;96605.28;4936699;28;20203;-79
2023/11/14 03:55:15;;;;;;;7.97;2.30;;;;;;;13.40;66.67;96620.66;4976166;28;20365;-78
2023/11/14 03:57:41;;;;;;;11.93;2.50;;;;;;;13.26;66.29;96617.06;4939302;28;20270;-78
2023/11/14 04:00:09;;;;;;;8.55;1.95;;;;;;;13.45;66.64;96625.03;4920123;28;21214;-79
2023/11/14 04:02:38;;;;;;;9.98;2.40;;;;;;;13.49;66.18;96624.22;4923678;28;20278;-79
2023/11/14 04:05:07;;;;;;;9.20;2.38;;;;;;;13.52;65.92;96624.72;4943879;28;20660;-79
2023/11/14 04:07:32;;;;;;;7.90;2.80;;;;;;;13.51;66.60;96634.41;4935228;28;20204;-79
2023/11/14 04:09:57;;;;;;;11.00;2.13;;;;;;;13.50;66.29;96624.97;4966543;28;20356;-79
2023/11/14 04:12:23;;;;;;;7.90;2.55;;;;;;;13.53;66.61;96640.13;4927217;28;20262;-79
2023/11/14 04:14:49;;;;;;;9.20;2.25;;;;;;;13.56;66.20;96628.34;4927382;28;20290;-79
2023/11/14 04:17:15;;;;;;;6.47;2.55;;;;;;;13.52;65.77;96633.34;4929656;28;20169;-79
2023/11/14 04:19:40;;;;;;;7.97;2.28;;;;;;;13.63;65.72;96637.41;4950346;28;20654;-79
2023/11/14 04:22:05;;;;;;;7.43;1.75;;;;;;;13.84;65.70;96645.06;4947869;28;20264;-79
2023/11/14 04:24:34;;;;;;;6.85;2.75;;;;;;;13.75;65.34;96638.88;4966147;28;20210;-79
2023/11/14 04:26:59;;;;;;;6.82;2.35;;;;;;;13.67;65.68;96638.44;4946027;28;20353;-79
2023/11/14 04:29:25;;;;;;;10.13;2.40;;;;;;;13.83;64.38;96627.81;4936273;28;20334;-80
2023/11/14 04:31:50;;;;;;;6.97;2.10;;;;;;;13.86;64.80;96638.50;4932784;28;20194;-79
2023/11/14 04:34:16;;;;;;;7.95;2.30;;;;;;;13.88;64.90;96632.19;4932187;28;20204;-79
2023/11/14 04:36:41;;;;;;;6.50;2.05;;;;;;;13.89;65.59;96631.91;4940202;28;20696;-79
2023/11/14 04:39:08;;;;;;;7.45;2.47;;;;;;;13.96;64.46;96627.13;4946218;28;20135;-79
2023/11/14 04:41:33;;;;;;;9.48;2.30;;;;;;;13.95;64.58;96628.19;4962121;28;20576;-79
2023/11/14 04:43:59;;;;;;;10.65;2.50;;;;;;;13.90;64.88;96624.84;4938724;28;20203;-79
2023/11/14 04:46:25;;;;;;;11.20;3.13;;;;;;;13.96;64.75;96626.34;4930348;28;20758;-79
2023/11/14 04:48:50;;;;;;;9.90;2.25;;;;;;;13.73;65.76;96617.47;4964225;28;20359;-79
2023/11/14 04:51:16;;;;;;;7.05;2.55;;;;;;;13.75;65.71;96617.94;4950820;28;20203;-79
2023/11/14 04:53:41;;;;;;;9.35;2.53;;;;;;;13.84;65.18;96617.03;4956150;28;20631;-79
2023/11/14 04:56:06;;;;;;;5.78;2.35;;;;;;;13.86;65.56;96614.16;4944155;28;20363;-79
2023/11/14 04:58:32;;;;;;;11.82;2.47;;;;;;;13.86;65.21;96619.38;4947100;28;20205;-79
2023/11/14 05:00:57;;;;;;;9.93;1.83;;;;;;;13.95;65.22;96622.97;4956364;28;20816;-79
2023/11/14 05:03:22;;;;;;;7.50;2.15;;;;;;;13.55;67.14;96618.94;4978517;28;20203;-80
2023/11/14 05:05:48;;;;;;;11.05;2.03;;;;;;;13.51;67.36;96618.72;4955044;28;20288;-79
2023/11/14 05:08:13;;;;;;;13.43;2.38;;;;;;;13.43;66.30;96624.53;4963221;28;20176;-79
2023/11/14 05:10:39;;;;;;;6.57;2.08;;;;;;;13.55;66.85;96630.16;4939109;28;20211;-79
2023/11/14 05:13:04;;;;;;;12.13;2.40;;;;;;;13.51;66.45;96634.41;4945649;28;20204;-79
2023/11/14 05:15:30;;;;;;;7.97;2.63;;;;;;;13.48;67.39;96632.31;4954827;28;20716;-80
2023/11/14 05:17:56;;;;;;;9.38;2.83;;;;;;;13.61;66.86;96634.31;4962336;28;20126;-78
2023/11/14 05:20:22;;;;;;;6.35;2.30;;;;;;;13.58;66.70;96619.16;4941294;28;20305;-79
2023/11/14 05:22:48;;;;;;;11.77;2.45;;;;;;;13.49;67.18;96616.38;4942713;28;20400;-79
2023/11/14 05:25:13;;;;;;;7.95;2.28;;;;;;;13.64;66.67;96628.53;4949467;28;20476;-78
2023/11/14 05:27:39;;;;;;;8.95;2.55;;;;;;;13.58;66.68;96615.78;4936988;28;20614;-78
2023/11/14 05:30:09;;;;;;;16.58;2.45;;;;;;;13.98;65.46;96627.66;4960337;28;20235;-78
2023/11/14 05:32:37;;;;;;;7.32;1.73;;;;;;;14.03;65.21;96630.19;4961765;28;20269;-79
2023/11/14 05:35:03;;;;;;;8.90;2.13;;;;;;;13.98;65.06;96611.13;4937558;28;20645;-79
2023/11/14 05:37:28;;;;;;;8.05;2.42;;;;;;;13.56;66.67;96620.50;4957473;28;20157;-79
2023/11/14 05:39:55;;;;;;;5.47;1.92;;;;;;;13.39;67.13;96620.91;4950633;28;20658;-79
2023/11/14 05:42:21;;;;;;;13.00;3.92;;;;;;;13.45;66.46;96619.81;4941699;28;20405;-79
2023/11/14 05:44:47;;;;;;;8.55;2.58;;;;;;;13.30;67.37;96629.31;4927765;28;20112;-78
2023/11/14 05:47:14;;;;;;;9.75;2.50;;;;;;;13.50;66.16;96627.59;4941866;28;20572;-79
2023/11/14 05:49:39;;;;;;;4.90;1.80;;;;;;;13.42;67.83;96649.13;4957524;28;20175;-78
2023/11/14 05:52:05;;;;;;;12.68;2.50;;;;;;;13.32;67.73;96650.00;4940609;28;20207;-78
2023/11/14 05:54:31;;;;;;;6.20;2.45;;;;;;;13.59;66.71;96651.31;4939445;28;20160;-79
2023/11/14 05:56:58;;;;;;;8.55;2.17;;;;;;;13.41;67.07;96655.41;4941619;28;20183;-79
2023/11/14 05:59:24;;;;;;;9.57;2.55;;;;;;;13.23;68.06;96662.06;4956938;28;20157;-79
2023/11/14 06:01:49;;;;;;;13.55;3.08;;;;;;;13.76;66.14;96638.59;4959243;28;20201;-78
2023/11/14 06:04:14;;;;;;;5.60;2.17;;;;;;;13.70;65.57;96642.31;4981732;28;20197;-79
2023/11/14 06:06:40;;;;;;;7.90;2.08;;;;;;;13.80;66.08;96657.16;4959708;28;20560;-79
2023/11/14 06:09:05;;;;;;;6.00;1.80;;;;;;;13.77;65.66;96653.22;4940685;28;20655;-79
2023/11/14 06:11:30;;;;;;;13.27;2.30;;;;;;;13.93;64.42;96656.50;4964060;28;20306;-79
2023/11/14 06:13:56;;;;;;;9.88;2.20;;;;;;;13.91;64.79;96661.19;4961515;28;20207;-79
2023/11/14 06:16:21;;;;;;;7.72;2.10;;;;;;;13.95;64.72;96648.34;4948455;28;20207;-78
2023/11/14 06:18:46;;;;;;;8.55;2.50;;;;;;;13.96;64.75;96645.44;4955694;28;20165;-79
2023/11/14 06:21:12;;;;;;;8.45;2.63;;;;;;;13.90;64.62;96662.28;4957164;28;20200;-79
2023/11/14 06:23:37;;;;;;;8.70;2.20;;;;;;;13.86;65.38;96651.59;4961908;28;20281;-79
2023/11/14 06:26:03;;;;;;;10.68;3.40;;;;;;;13.92;64.68;96654.91;4938586;28;20370;-78
2023/11/14 06:28:29;;;;;;;4.57;1.90;;;;;;;13.84;64.79;96658.91;4963242;28;20279;-79
2023/11/14 06:30:54;;;;;;;6.55;1.70;;;;;;;13.99;64.79;96665.81;4945765;28;20164;-79
2023/11/14 06:33:20;;;;;;;9.45;2.75;;;;;;;13.84;64.85;96679.84;4927772;28;20285;-79
2023/11/14 06:35:47;;;;;;;9.45;2.03;;;;;;;13.90;65.71;96682.41;4958316;28;20212;-79
2023/11/14 06:38:13;;;;;;;8.52;1.73;;;;;;;14.08;65.33;96678.31;4940959;28;20197;-79
2023/11/14 06:40:39;;;;;;;10.90;2.63;;;;;;;13.86;64.68;96684.81;4965292;28;20184;-79
2023/11/14 06:43:06;;;;;;;9.88;3.08;;;;;;;13.81;65.01;96690.88;4945954;28;20207;-78
2023/11/14 06:45:36;;;;;;;6.50;2.00;;;;;;;14.00;64.70;96698.81;4965664;28;20658;-79
2023/11/14 06:48:01;;;;;;;7.45;2.25;;;;;;;14.00;64.88;96704.03;4966739;28;20203;-79
2023/11/14 06:50:26;;;;;;;10.65;2.05;;;;;;;13.96;63.74;96703.03;4969250;28;20187;-79
2023/11/14 06:52:52;;;;;;;5.88;1.80;;;;;;;13.92;64.98;96688.94;4946724;28;20366;-80
2023/11/14 06:55:17;;;;;;;8.15;2.28;;;;;;;14.08;63.79;96713.13;4960297;28;20682;-79
2023/11/14 06:57:43;;;;;;;8.27;2.10;;;;;;;14.05;63.98;96704.00;4945491;28;20314;-79
2023/11/14 07:00:09;;;;;;;7.50;2.45;;;;;;;13.92;63.84;96704.66;4942810;28;20370;-79
2023/11/14 07:02:35;;;;;;;5.40;2.17;;;;;;;13.93;63.54;96690.50;4965771;28;20767;-80
2023/11/14 07:05:00;;;;;;;8.32;2.78;;;;;;;14.09;64.33;96685.13;4927460;28;20235;-80
2023/11/14 07:07:26;;;;;;;7.25;2.08;;;;;;;14.16;64.00;96685.56;4957601;28;20543;-80
2023/11/14 07:09:51;;;;;;;4.95;1.42;;;;;;;14.15;63.58;96678.75;4969796;28;20281;-79
2023/11/14 07:12:17;;;;;;;10.05;2.08;;;;;;;14.03;64.00;96653.75;4931464;28;20222;-80
2023/11/14 07:14:42;;;;;;;8.98;1.55;;;;;;;14.10;64.02;96644.78;4950325;28;20201;-80
2023/11/14 07:17:08;;;;;;;7.35;2.13;;;;;;;14.08;63.72;96662.59;4967343;28;20320;-79
2023/11/14 07:19:34;;;;;;;6.07;2.65;;;;;;;14.12;63.50;96671.44;4925665;28;20207;-80
2023/11/14 07:22:01;;;;;;;5.80;2.45;;;;;;;14.16;63.45;96681.09;4963124;28;20142;-79
2023/11/14 07:24:26;;;;;;;9.10;2.17;;;;;;;14.10;63.39;96691.91;4928042;28;20194;-79
2023/11/14 07:26:52;;;;;;;7.65;2.13;;;;;;;13.91;63.52;96681.38;4934283;28;20194;-80
2023/11/14 07:29:19;;;;;;;6.15;2.22;;;;;;;14.14;62.83;96706.00;4927783;28;20187;-79
2023/11/14 07:31:45;;;;;;;3.95;1.63;;;;;;;14.18;63.09;96704.38;4932329;28;20195;-79
2023/11/14 07:34:11;;;;;;;7.47;1.98;;;;;;;14.01;63.75;96707.44;4949050;28;20705;-79
2023/11/14 07:36:36;;;;;;;8.90;1.77;;;;;;;13.92;64.12;96703.88;4963391;28;20195;-79
2023/11/14 07:39:02;;;;;;;5.57;1.77;;;;;;;14.03;63.74;96727.06;4923093;28;20246;-79
2023/11/14 07:41:27;;;;;;;8.65;1.95;;;;;;;13.97;63.38;96738.63;4955288;28;20307;-78
2023/11/14 07:43:52;;;;;;;6.82;2.10;;;;;;;13.63;64.39;96747.28;4950278;28;20332;-80
2023/11/14 07:46:18;;;;;;;7.97;2.95;;;;;;;13.98;64.04;96745.44;4942836;28;20190;-79
2023/11/14 07:48:43;;;;;;;7.53;2.00;;;;;;;13.96;63.77;96760.59;4964318;28;20282;-79
2023/11/14 07:51:09;;;;;;;8.25;1.88;;;;;;;14.01;64.07;96785.97;4928367;28;20615;-80
2023/11/14 07:53:35;;;;;;;6.53;2.15;;;;;;;13.86;63.91;96777.19;4959599;28;20700;-79
2023/11/14 07:56:04;;;;;;;9.05;2.17;;;;;;;13.81;64.45;96772.00;4948142;28;20245;-80
2023/11/14 07:58:29;;;;;;;6.00;1.80;;;;;;;13.78;63.90;96758.69;4942555;28;20205;-79
2023/11/14 08:00:58;;;;;;;5.50;1.67;;;;;;;13.99;64.00;96733.13;4943002;28;20188;-79
2023/11/14 08:03:24;;;;;;;4.78;1.73;;;;;;;13.98;63.90;96721.88;4928039;28;20156;-79
2023/11/14 08:05:49;;;;;;;6.97;1.95;;;;;;;14.08;63.74;96713.13;4943390;28;20397;-79
2023/11/14 08:08:14;;;;;;;5.63;1.88;;;;;;;14.03;63.58;96708.72;4965733;28;20654;-81
2023/11/14 08:10:40;;;;;;;7.45;2.60;;;;;;;14.03;64.74;96697.47;4954495;28;20284;-81
2023/11/14 08:13:06;;;;;;;9.43;2.13;;;;;;;13.98;65.16;96689.66;4935524;28;20203;-81
2023/11/14 08:15:32;;;;;;;6.15;3.00;;;;;;;13.98;64.64;96666.09;4931899;28;20373;-80
2023/11/14 08:17:57;;;;;;;7.07;2.17;;;;;;;13.94;64.52;96658.03;4946503;28;20889;-80
2023/11/14 08:20:22;;;;;;;8.57;1.88;;;;;;;14.01;64.22;96645.38;4962805;28;20097;-81
2023/11/14 08:22:50;;;;;;;9.43;3.05;;;;;;;14.08;64.26;96660.00;4944043;28;20180;-80
2023/11/14 08:25:15;;;;;;;5.75;1.80;;;;;;;14.12;63.80;96671.44;4939831;28;20274;-80
2023/11/14 08:27:42;;;;;;;5.07;2.00;;;;;;;14.23;63.39;96691.22;4962628;28;20686;-81
2023/11/14 08:30:09;;;;;;;8.20;1.83;;;;;;;14.02;65.15;96701.94;4925540;28;20624;-80
2023/11/14 08:32:38;;;;;;;9.50;2.10;;;;;;;14.08;64.62;96712.34;4928403;28;20165;-79
2023/11/14 08:35:04;;;;;;;10.57;2.63;;;;;;;14.00;64.42;96704.03;4923397;28;20193;-80
2023/11/14 08:37:31;;;;;;;9.43;2.03;;;;;;;14.03;63.72;96690.41;4967221;28;20191;-79
2023/11/14 08:39:57;;;;;;;7.15;2.15;;;;;;;14.15;63.71;96679.53;4957633;28;20248;-80
2023/11/14 08:42:22;;;;;;;8.07;2.47;;;;;;;14.07;64.79;96674.13;4932657;28;20292;-80
2023/11/14 08:44:48;;;;;;;6.65;2.65;;;;;;;14.14;63.18;96672.75;4948397;28;20231;-79
2023/11/14 08:47:13;;;;;;;6.75;2.10;;;;;;;14.28;63.00;96680.69;4967595;28;20276;-80
2023/11/14 08:49:40;;;;;;;6.82;3.05;;;;;;;14.14;64.03;96659.66;4931691;28;20322;-80
2023/11/14 08:52:05;;;;;;;7.22;2.22;;;;;;;14.11;63.79;96683.75;4960180;28;20180;-80
2023/11/14 08:54:32;;;;;;;5.88;1.73;;;;;;;14.17;64.06;96682.66;4954035;28;20258;-81
2023/11/14 08:56:57;;;;;;;6.90;2.35;;;;;;;14.23;63.44;96686.00;4943700;28;20673;-80
2023/11/14 08:59:22;;;;;;;6.60;1.77;;;;;;;14.32;62.72;96676.44;4945759;28;20215;-80
2023/11/14 09:01:48;;;;;;;9.00;2.20;;;;;;;14.23;63.65;96673.69;4948812;28;20261;-80
2023/11/14 09:04:13;;;;;;;10.27;2.05;;;;;;;14.23;64.04;96673.69;4949257;28;20641;-82
2023/11/14 09:06:39;;;;;;;8.38;2.42;;;;;;;14.29;63.69;96677.03;4957423;28;20207;-80
2023/11/14 09:09:05;;;;;;;7.78;1.92;;;;;;;14.40;64.22;96681.06;4920378;28;20203;-80
2023/11/14 09:11:30;;;;;;;4.80;2.08;;;;;;;14.33;63.38;96679.88;4965025;28;20695;-80
2023/11/14 09:13:57;;;;;;;18.92;3.25;;;;;;;14.10;64.06;96671.72;4949981;28;20229;-79
2023/11/14 09:16:25;;;;;;;8.02;1.88;;;;;;;14.25;63.15;96665.53;4920612;28;20202;-80
2023/11/14 09:18:53;;;;;;;9.30;2.30;;;;;;;14.26;64.02;96689.88;4948984;28;20183;-80
2023/11/14 09:21:19;;;;;;;10.75;1.90;;;;;;;14.23;63.50;96686.75;4952594;28;20285;-81
2023/11/14 09:23:45;;;;;;;7.35;1.85;;;;;;;14.02;64.82;96683.59;4961147;28;20668;-80
2023/11/14 09:26:12;;;;;;;9.00;2.33;;;;;;;14.24;63.81;96684.94;4964239;28;20302;-80
2023/11/14 09:28:37;;;;;;;7.95;2.00;;;;;;;14.38;63.67;96683.19;4954710;28;20282;-81
2023/11/14 09:31:04;;;;;;;5.18;2.20;;;;;;;14.50;63.44;96685.41;4956764;28;20307;-80
2023/11/14 09:33:30;;;;;;;9.30;3.45;;;;;;;14.54;63.67;96696.88;4947376;28;20164;-80
2023/11/14 09:35:56;;;;;;;8.80;2.20;;;;;;;14.52;63.55;96698.22;4933621;28;20206;-80
2023/11/14 09:38:24;;;;;;;6.85;2.38;;;;;;;14.43;63.68;96696.22;4948812;28;20296;-81
2023/11/14 09:40:49;;;;;;;5.43;2.08;;;;;;;14.34;63.25;96694.50;4950825;28;20717;-81
2023/11/14 09:43:17;;;;;;;9.05;2.58;;;;;;;14.44;63.23;96681.28;4948618;28;20274;-80
2023/11/14 09:45:45;;;;;;;4.80;1.98;;;;;;;14.53;63.85;96682.25;4962298;28;20675;-81
2023/11/14 09:48:10;;;;;;;7.50;2.17;;;;;;;14.46;64.42;96673.16;4928925;28;20274;-80
2023/11/14 09:50:39;;;;;;;8.60;2.90;;;;;;;14.52;63.25;96679.91;4949261;28;20160;-81
2023/11/14 09:53:06;;;;;;;5.25;2.60;;;;;;;14.50;63.64;96695.91;4934390;28;20595;-80
2023/11/14 09:55:33;;;;;;;10.13;2.83;;;;;;;14.50;63.66;96705.59;4950412;28;20215;-81
2023/11/14 09:58:01;;;;;;;5.72;2.20;;;;;;;14.67;63.22;96700.69;4948645;28;20648;-79
2023/11/14 10:00:28;;;;;;;6.38;2.45;;;;;;;14.56;63.35;96707.06;4933772;28;20571;-80
2023/11/14 10:02:56;;;;;;;6.65;1.98;;;;;;;14.56;63.94;96723.56;4941045;28;20257;-80
2023/11/14 10:05:21;;;;;;;4.68;1.90;;;;;;;14.58;63.75;96723.28;4933774;28;20241;-80
2023/11/14 10:07:48;;;;;;;4.30;2.28;;;;;;;14.68;62.92;96725.03;4934395;28;20539;-81
2023/11/14 10:10:14;;;;;;;7.07;1.85;;;;;;;14.54;63.55;96719.69;4949366;28;20276;-81
2023/11/14 10:12:40;;;;;;;3.20;1.55;;;;;;;14.66;62.92;96717.47;4926436;28;20247;-81
2023/11/14 10:15:07;;;;;;;3.92;1.95;;;;;;;14.68;62.65;96712.72;4942016;28;20285;-80
2023/11/14 10:17:43;;;;;;;6.30;2.10;;;;;;;14.61;63.70;96713.06;4934068;28;20535;-81
2023/11/14 10:20:10;;;;;;;6.80;2.25;;;;;;;14.61;63.60;96709.66;4946358;28;20195;-81
2023/11/14 10:22:45;;;;;;;6.82;1.92;;;;;;;14.70;62.29;96700.13;4948941;28;20237;-81
2023/11/14 10:25:25;;;;;;;5.90;1.98;;;;;;;14.56;63.37;96707.84;4934243;28;20347;-81
2023/11/14 10:28:04;;;;;;;5.30;1.40;;;;;;;14.68;63.22;96697.00;4935267;28;20616;-81
2023/11/14 10:30:41;;;;;;;8.00;1.73;;;;;;;14.68;63.27;96701.47;4942987;28;20281;-81
2023/11/14 10:33:07;;;;;;;5.78;1.83;;;;;;;14.33;64.29;96683.25;4957423;28;20288;-81
2023/11/14 10:35:33;;;;;;;7.20;1.92;;;;;;;14.34;63.96;96682.22;4935432;28;20210;-81
2023/11/14 10:38:20;;;;;;;7.20;1.52;;;;;;;14.65;63.19;96679.22;4950364;28;20580;-81
2023/11/14 10:40:51;;;;;;;7.05;1.90;;;;;;;14.47;63.94;96654.53;4930056;28;20590;-80
2023/11/14 10:43:31;;;;;;;4.38;1.50;;;;;;;14.73;62.48;96623.56;4930976;28;20207;-81
2023/11/14 10:46:06;;;;;;;6.05;1.88;;;;;;;14.87;61.91;96628.84;4946215;28;20692;-80
2023/11/14 10:48:32;;;;;;;5.70;2.42;;;;;;;14.84;62.36;96623.41;4945256;28;20687;-80
2023/11/14 10:50:57;;;;;;;7.00;2.60;;;;;;;14.84;62.35;96592.75;4932585;28;20199;-81
2023/11/14 10:53:24;;;;;;;7.07;1.92;;;;;;;14.61;63.52;96595.16;4963859;28;20287;-80
2023/11/14 10:55:49;;;;;;;4.93;2.00;;;;;;;14.73;63.20;96593.94;4934300;28;20196;-80
2023/11/14 10:58:16;;;;;;;6.43;1.95;;;;;;;14.79;62.51;96596.22;4946871;28;20377;-81
2023/11/14 11:00:41;;;;;;;4.38;1.83;;;;;;;14.87;63.08;96583.53;4930095;28;20703;-80
2023/11/14 11:03:08;;;;;;;2.60;1.67;;;;;;;15.12;62.22;96584.97;4922603;28;20218;-80
2023/11/14 11:05:33;;;;;;;5.43;1.50;;;;;;;15.12;62.36;96583.09;4945885;28;20203;-81
2023/11/14 11:08:02;;;;;;;5.10;1.48;;;;;;;15.12;61.69;96559.50;4952531;28;20210;-82
2023/11/14 11:10:32;;;;;;;7.10;1.92;;;;;;;14.75;62.97;96555.94;4933310;28;20284;-81
2023/11/14 11:13:04;;;;;;;5.50;2.05;;;;;;;15.20;62.51;96565.16;4921391;28;20204;-82
2023/11/14 11:15:31;;;;;;;6.55;1.40;;;;;;;14.96;62.36;96548.50;4958782;28;20196;-81
2023/11/14 11:18:00;;;;;;;4.15;1.17;;;;;;;15.32;61.24;96560.25;4938094;28;20161;-81
2023/11/14 11:20:30;;;;;;;7.18;1.60;;;;;;;15.40;60.92;96543.81;4934149;28;20166;-81
2023/11/14 11:23:10;;;;;;;6.55;1.85;;;;;;;15.45;61.65;96551.59;4926493;28;20536;-83
2023/11/14 11:25:36;;;;;;;3.60;1.25;;;;;;;15.31;61.59;96551.56;4939190;28;20211;-82
2023/11/14 11:28:20;;;;;;;3.67;1.20;;;;;;;15.34;61.52;96544.97;4969657;28;20271;-82